Time;durP1;ratioP1;P1;durP2;ratioP2;P2;SDS_P1;SDS_P2;PMS_P1;PMS_P2;Temp;Humidity;BMP_temperature;BMP_pressure;BME280_temperature;BME280_humidity;BME280_pressure;Samples;Min_cycle;Max_cycle;Signal;HPM_P1;HPM_P2
2022/07/30 00:00:15;;;;;;;4.05;1.20;;;24.70;46.50;23.80;101289.00;;;;5023645;28;20041;-66
2022/07/30 00:03:01;;;;;;;1.95;0.93;;;24.60;46.40;23.80;101302.00;;;;5023941;28;20056;-66
2022/07/30 00:05:47;;;;;;;2.13;1.27;;;24.60;46.40;23.80;101306.00;;;;5021247;28;20041;-66
2022/07/30 00:08:33;;;;;;;3.72;1.40;;;24.60;46.50;23.80;101302.00;;;;5025072;28;20032;-66
2022/07/30 00:11:20;;;;;;;0.90;0.90;;;24.60;46.50;23.80;101297.00;;;;5024153;28;20446;-67
2022/07/30 00:14:06;;;;;;;1.88;1.20;;;24.70;46.50;23.80;101291.00;;;;5023442;28;20093;-66
2022/07/30 00:16:53;;;;;;;2.28;1.27;;;24.60;46.50;23.80;101291.00;;;;5042226;28;20033;-67
2022/07/30 00:19:39;;;;;;;2.17;1.33;;;24.60;46.50;23.80;101295.00;;;;5028628;28;20434;-66
2022/07/30 00:22:25;;;;;;;2.05;1.27;;;24.60;46.50;23.80;101292.00;;;;5025881;28;20038;-67
2022/07/30 00:25:11;;;;;;;3.05;1.17;;;24.60;46.60;23.80;101285.00;;;;5029135;28;20491;-66
2022/07/30 00:27:57;;;;;;;1.48;1.25;;;24.70;46.60;23.80;101279.00;;;;5021247;28;20038;-67
2022/07/30 00:30:43;;;;;;;1.60;1.27;;;24.60;46.60;23.80;101275.00;;;;5029117;28;20045;-67
2022/07/30 00:33:29;;;;;;;2.60;1.35;;;24.60;46.60;23.80;101277.00;;;;5026760;28;20041;-66
2022/07/30 00:36:15;;;;;;;2.30;1.50;;;24.60;46.60;23.80;101276.00;;;;5023051;28;20037;-66
2022/07/30 00:39:01;;;;;;;1.38;1.20;;;24.60;46.60;23.80;101275.00;;;;5023911;28;20046;-66
2022/07/30 00:41:59;;;;;;;3.17;1.23;;;24.60;46.60;23.70;101283.00;;;;5021535;28;20065;-67
2022/07/30 00:44:45;;;;;;;1.85;1.20;;;24.60;46.70;23.70;101280.00;;;;5041939;28;20053;-66
2022/07/30 00:47:31;;;;;;;2.80;1.13;;;24.60;46.70;23.70;101277.00;;;;5026212;28;20044;-66
2022/07/30 00:50:17;;;;;;;1.70;1.60;;;24.50;46.60;23.70;101269.00;;;;5021414;28;20510;-66
2022/07/30 00:53:04;;;;;;;0.90;0.90;;;24.50;46.60;23.70;101271.00;;;;5029949;28;20500;-66
2022/07/30 00:55:50;;;;;;;2.80;1.25;;;24.60;46.70;23.70;101271.00;;;;5020516;28;20493;-66
2022/07/30 00:58:36;;;;;;;2.38;1.20;;;24.40;46.60;23.70;101267.00;;;;5024264;28;20040;-67
2022/07/30 01:01:22;;;;;;;1.30;1.10;;;24.40;46.60;23.70;101270.00;;;;5026184;28;20107;-67
2022/07/30 01:04:10;;;;;;;1.35;1.23;;;24.50;46.60;23.70;101269.00;;;;5023770;28;20042;-66
2022/07/30 01:06:56;;;;;;;1.73;1.02;;;24.50;46.70;23.70;101264.00;;;;5026903;28;20052;-67
2022/07/30 01:09:42;;;;;;;1.38;1.27;;;24.50;46.70;23.70;101259.00;;;;5024687;28;20041;-66
2022/07/30 01:12:28;;;;;;;1.58;1.33;;;24.50;46.70;23.70;101267.00;;;;5024861;28;20038;-66
2022/07/30 01:15:15;;;;;;;2.25;1.50;;;24.50;46.70;23.70;101267.00;;;;5044141;28;20041;-66
2022/07/30 01:18:04;;;;;;;1.40;1.30;;;24.40;46.70;23.70;101274.00;;;;5023710;28;20478;-66
2022/07/30 01:21:03;;;;;;;2.85;1.27;;;24.50;46.80;23.60;101258.00;;;;5025536;28;20037;-67
2022/07/30 01:23:50;;;;;;;1.25;1.00;;;24.50;46.70;23.70;101260.00;;;;5040510;28;20091;-67
2022/07/30 01:26:36;;;;;;;3.20;1.40;;;24.40;46.70;23.60;101258.00;;;;5023387;28;20141;-66
2022/07/30 01:29:22;;;;;;;2.33;1.40;;;24.40;46.70;23.60;101255.00;;;;5028901;28;20049;-67
2022/07/30 01:32:08;;;;;;;1.05;0.90;;;24.50;46.70;23.60;101257.00;;;;5025513;28;20060;-66
2022/07/30 01:34:55;;;;;;;2.17;1.20;;;24.40;46.70;23.60;101253.00;;;;5016072;28;20403;-66
2022/07/30 01:37:41;;;;;;;2.10;1.20;;;24.40;46.80;23.60;101250.00;;;;5036425;28;20038;-66
2022/07/30 01:40:27;;;;;;;2.45;1.10;;;24.40;46.70;23.60;101266.00;;;;5010760;28;20049;-67
2022/07/30 01:43:13;;;;;;;1.40;1.17;;;24.40;46.70;23.60;101263.00;;;;5011243;28;20037;-66
2022/07/30 01:46:03;;;;;;;1.73;1.20;;;24.40;46.70;23.60;101258.00;;;;5023660;28;20408;-67
2022/07/30 01:48:49;;;;;;;1.70;1.50;;;24.40;46.70;23.60;101263.00;;;;5022233;28;20038;-66
2022/07/30 01:51:36;;;;;;;1.40;1.17;;;24.40;46.70;23.60;101248.00;;;;5022806;28;20464;-66
2022/07/30 01:54:23;;;;;;;1.40;1.15;;;24.40;46.80;23.60;101253.00;;;;5034730;28;20519;-67
2022/07/30 01:57:09;;;;;;;1.25;1.13;;;24.40;46.70;23.60;101262.00;;;;5021142;28;20037;-66
2022/07/30 02:00:00;;;;;;;2.50;1.33;;;24.40;46.80;23.60;101251.00;;;;5022249;28;20045;-66
2022/07/30 02:02:46;;;;;;;1.77;1.10;;;24.40;46.70;23.60;101252.00;;;;5032988;28;20360;-67
2022/07/30 02:05:32;;;;;;;1.65;1.20;;;24.40;46.80;23.60;101257.00;;;;5015918;28;20045;-67
2022/07/30 02:08:41;;;;;;;2.42;1.38;;;24.40;46.70;23.60;101254.00;;;;5039116;28;20112;-66
2022/07/30 02:14:51;;;;;;;1.90;1.20;;;24.40;46.70;23.50;101258.00;;;;5037671;28;20524;-66
2022/07/30 02:18:17;;;;;;;2.58;1.40;;;24.30;46.70;23.50;101252.00;;;;5023869;28;20049;-66
2022/07/30 02:21:05;;;;;;;1.77;1.08;;;24.30;46.70;23.50;101255.00;;;;5010637;28;20052;-66
2022/07/30 02:23:51;;;;;;;3.20;1.10;;;24.30;46.70;23.50;101250.00;;;;5026535;28;20045;-67
2022/07/30 02:26:37;;;;;;;3.22;1.33;;;24.30;46.80;23.50;101254.00;;;;5019954;28;20053;-66
2022/07/30 02:29:24;;;;;;;1.63;1.27;;;24.30;46.80;23.50;101254.00;;;;5021847;28;20128;-66
2022/07/30 02:32:13;;;;;;;2.13;1.60;;;24.30;46.90;23.50;101246.00;;;;5018888;28;20080;-67
2022/07/30 02:35:09;;;;;;;3.35;1.17;;;24.30;46.90;23.50;101244.00;;;;5018156;28;20120;-66
2022/07/30 02:37:55;;;;;;;1.75;1.25;;;24.30;46.80;23.50;101253.00;;;;5037835;28;20068;-66
2022/07/30 02:40:41;;;;;;;1.35;1.25;;;24.40;46.90;23.50;101255.00;;;;5023221;28;20050;-66
2022/07/30 02:43:27;;;;;;;1.92;1.10;;;24.20;46.80;23.50;101250.00;;;;4993811;28;20037;-66
2022/07/30 02:46:13;;;;;;;1.60;1.00;;;24.20;46.90;23.50;101259.00;;;;5011139;28;20049;-66
2022/07/30 02:48:59;;;;;;;2.30;1.50;;;24.20;46.90;23.50;101262.00;;;;5009481;28;20510;-66
2022/07/30 02:51:46;;;;;;;1.42;1.33;;;24.20;47.60;23.50;101259.00;;;;5036569;28;20450;-66
2022/07/30 02:54:32;;;;;;;2.22;1.15;;;24.20;47.00;23.50;101262.00;;;;5036429;28;20495;-66
2022/07/30 02:57:18;;;;;;;1.88;1.30;;;24.20;46.90;23.40;101258.00;;;;5035202;28;20040;-66
2022/07/30 03:00:05;;;;;;;1.63;1.33;;;24.20;46.90;23.40;101266.00;;;;5018964;28;20655;-66
2022/07/30 03:02:52;;;;;;;1.75;1.40;;;24.20;46.90;23.40;101266.00;;;;5022026;28;20049;-66
2022/07/30 03:05:39;;;;;;;2.58;1.13;;;24.20;46.90;23.40;101266.00;;;;5029152;28;20033;-66
2022/07/30 03:08:25;;;;;;;1.70;1.40;;;24.20;46.90;23.40;101271.00;;;;5022826;28;20037;-66
2022/07/30 03:11:12;;;;;;;1.52;1.30;;;24.10;46.90;23.40;101271.00;;;;5023005;28;20185;-66
2022/07/30 03:13:58;;;;;;;1.45;1.30;;;24.20;46.80;23.40;101273.00;;;;5014675;28;20041;-66
2022/07/30 03:16:47;;;;;;;1.25;1.15;;;24.20;46.80;23.40;101260.00;;;;5037484;28;20395;-66
2022/07/30 03:19:36;;;;;;;2.95;1.70;;;24.20;46.80;23.40;101262.00;;;;5024272;28;20052;-66
2022/07/30 03:22:22;;;;;;;3.03;1.35;;;24.20;46.90;23.40;101267.00;;;;5023638;28;20045;-66
2022/07/30 03:25:09;;;;;;;1.17;1.10;;;24.20;46.90;23.40;101273.00;;;;5016319;28;20054;-66
2022/07/30 03:27:56;;;;;;;1.63;1.38;;;24.10;46.90;23.40;101277.00;;;;5027683;28;20337;-66
2022/07/30 03:30:42;;;;;;;1.88;1.30;;;24.20;46.90;23.40;101275.00;;;;5037078;28;20478;-66
2022/07/30 03:33:29;;;;;;;1.83;1.10;;;24.10;46.80;23.40;101274.00;;;;5023699;28;20498;-66
2022/07/30 03:36:15;;;;;;;1.10;0.93;;;24.20;46.90;23.40;101263.00;;;;5021270;28;20041;-66
2022/07/30 03:39:02;;;;;;;2.38;1.30;;;24.20;46.90;23.40;101270.00;;;;5022260;28;20048;-66
2022/07/30 03:41:48;;;;;;;3.35;1.65;;;24.10;47.00;23.40;101278.00;;;;5013865;28;20445;-66
2022/07/30 03:44:34;;;;;;;1.95;1.30;;;24.10;46.90;23.30;101280.00;;;;5023710;28;20037;-66
2022/07/30 03:47:20;;;;;;;1.95;1.25;;;24.00;46.90;23.30;101280.00;;;;5029405;28;20503;-66
2022/07/30 03:50:07;;;;;;;1.60;1.30;;;24.10;46.90;23.30;101286.00;;;;5011001;28;20050;-66
2022/07/30 03:52:53;;;;;;;1.20;1.08;;;24.10;46.90;23.30;101287.00;;;;5023405;28;20112;-66
2022/07/30 03:55:39;;;;;;;3.63;1.33;;;24.00;46.80;23.30;101279.00;;;;5021811;28;20475;-66
2022/07/30 03:58:25;;;;;;;1.20;1.10;;;24.10;46.80;23.30;101272.00;;;;5015440;28;20049;-65
2022/07/30 04:01:11;;;;;;;1.50;1.25;;;24.10;46.70;23.30;101269.00;;;;5019136;28;20053;-66
2022/07/30 04:04:07;;;;;;;2.97;1.30;;;24.10;46.70;23.30;101275.00;;;;5020031;28;20045;-66
2022/07/30 04:06:53;;;;;;;2.55;1.27;;;24.10;46.50;23.30;101276.00;;;;5021319;28;20296;-66
2022/07/30 04:09:39;;;;;;;1.70;1.15;;;24.10;46.70;23.30;101276.00;;;;5021831;28;20095;-66
2022/07/30 04:12:25;;;;;;;1.60;1.33;;;24.10;46.60;23.30;101277.00;;;;5024315;28;20484;-66
2022/07/30 04:15:12;;;;;;;3.00;1.10;;;24.00;46.70;23.30;101277.00;;;;5021429;28;20107;-66
2022/07/30 04:18:01;;;;;;;1.83;1.15;;;24.10;46.80;23.30;101278.00;;;;5028402;28;20045;-66
2022/07/30 04:20:47;;;;;;;3.42;1.40;;;24.00;46.80;23.30;101278.00;;;;5027055;28;20045;-66
2022/07/30 04:23:33;;;;;;;3.65;1.20;;;24.00;46.80;23.30;101286.00;;;;5026687;28;20048;-66
2022/07/30 04:26:20;;;;;;;1.13;1.05;;;24.00;46.80;23.30;101289.00;;;;5027853;28;20091;-66
2022/07/30 04:29:08;;;;;;;2.30;1.50;;;24.00;46.80;23.30;101286.00;;;;5013972;28;20072;-66
2022/07/30 04:31:54;;;;;;;2.15;1.38;;;24.00;46.80;23.20;101296.00;;;;5024635;28;20041;-66
2022/07/30 04:34:46;;;;;;;1.30;1.20;;;24.00;46.80;23.20;101297.00;;;;5011606;28;20033;-66
2022/07/30 04:37:32;;;;;;;1.52;1.25;;;24.00;47.00;23.20;101299.00;;;;5039627;28;20072;-66
2022/07/30 04:40:18;;;;;;;1.95;1.70;;;24.00;46.90;23.20;101307.00;;;;5028330;28;20045;-65
2022/07/30 04:43:05;;;;;;;2.08;1.30;;;24.00;47.00;23.20;101311.00;;;;5022600;28;20049;-66
2022/07/30 04:45:51;;;;;;;1.60;1.20;;;24.00;46.90;23.20;101308.00;;;;5027265;28;20049;-66
2022/07/30 04:48:37;;;;;;;1.73;1.42;;;24.00;46.90;23.20;101314.00;;;;5029673;28;20037;-66
2022/07/30 04:51:27;;;;;;;2.42;1.67;;;24.00;46.70;23.20;101310.00;;;;5022578;28;20049;-66
2022/07/30 04:54:13;;;;;;;1.52;1.42;;;24.00;46.70;23.20;101314.00;;;;5026068;28;20487;-66
2022/07/30 04:56:59;;;;;;;2.30;1.40;;;24.00;46.70;23.20;101317.00;;;;5021665;28;20052;-66
2022/07/30 04:59:45;;;;;;;3.45;1.40;;;24.00;46.60;23.20;101324.00;;;;5022805;28;20042;-66
2022/07/30 05:02:33;;;;;;;1.75;1.35;;;24.00;46.60;23.20;101319.00;;;;5025010;28;20049;-66
2022/07/30 05:05:19;;;;;;;3.45;1.80;;;24.00;46.50;23.20;101327.00;;;;5036635;28;20339;-66
2022/07/30 05:08:05;;;;;;;3.00;1.50;;;24.00;46.70;23.20;101322.00;;;;5027039;28;20781;-66
2022/07/30 05:10:51;;;;;;;2.75;1.73;;;24.00;46.80;23.20;101319.00;;;;5022757;28;20045;-66
2022/07/30 05:13:41;;;;;;;3.65;1.35;;;24.00;46.80;23.20;101324.00;;;;5022685;28;20037;-66
2022/07/30 05:16:28;;;;;;;1.95;1.50;;;23.90;46.70;23.20;101328.00;;;;5022453;28;20042;-66
2022/07/30 05:19:14;;;;;;;1.97;1.77;;;24.00;47.40;23.20;101340.00;;;;5021219;28;20404;-66
2022/07/30 05:22:00;;;;;;;4.00;1.60;;;24.00;46.70;23.20;101343.00;;;;5019912;28;20330;-66
2022/07/30 05:24:46;;;;;;;1.73;1.25;;;24.00;46.80;23.20;101348.00;;;;5019679;28;20045;-66
2022/07/30 05:27:32;;;;;;;3.67;1.67;;;24.00;46.80;23.20;101351.00;;;;5021532;28;20041;-66
2022/07/30 05:30:18;;;;;;;1.60;1.45;;;24.10;46.90;23.20;101348.00;;;;5022276;28;20411;-66
2022/07/30 05:33:04;;;;;;;3.42;1.48;;;24.00;46.80;23.20;101351.00;;;;5023036;28;20036;-66
2022/07/30 05:35:51;;;;;;;9.60;1.77;;;24.00;46.80;23.20;101357.00;;;;5023405;28;20038;-66
2022/07/30 05:38:37;;;;;;;1.50;1.30;;;24.00;46.80;23.20;101355.00;;;;5025996;28;20060;-66
2022/07/30 05:41:23;;;;;;;2.75;1.52;;;24.00;46.90;23.30;101358.00;;;;5019991;28;20045;-66
2022/07/30 05:44:09;;;;;;;2.60;1.90;;;24.10;46.90;23.30;101362.00;;;;5022033;28;20413;-66
2022/07/30 05:46:55;;;;;;;4.78;1.80;;;24.00;46.90;23.20;101359.00;;;;5025384;28;20642;-66
2022/07/30 05:49:41;;;;;;;2.80;1.58;;;24.20;46.90;23.30;101358.00;;;;5025120;28;20049;-66
2022/07/30 05:52:27;;;;;;;1.70;1.60;;;24.00;46.90;23.30;101360.00;;;;5021989;28;20041;-66
2022/07/30 05:55:14;;;;;;;2.38;1.35;;;24.10;46.90;23.30;101359.00;;;;5023960;28;20581;-66
2022/07/30 05:58:00;;;;;;;2.55;1.58;;;24.10;47.00;23.30;101364.00;;;;5019547;28;20030;-66
2022/07/30 06:00:46;;;;;;;2.10;1.60;;;24.00;46.90;23.30;101367.00;;;;5022879;28;20045;-66
2022/07/30 06:03:33;;;;;;;2.38;1.65;;;24.00;46.90;23.30;101375.00;;;;5025448;28;20045;-66
2022/07/30 06:06:19;;;;;;;2.10;1.60;;;24.10;47.00;23.30;101376.00;;;;5016472;28;20041;-66
2022/07/30 06:09:05;;;;;;;2.17;1.73;;;24.10;47.00;23.30;101371.00;;;;5020976;28;20060;-66
2022/07/30 06:11:51;;;;;;;2.53;1.55;;;24.10;47.00;23.30;101374.00;;;;5020573;28;20037;-66
2022/07/30 06:14:37;;;;;;;1.85;1.52;;;24.10;47.00;23.30;101382.00;;;;5025358;28;20045;-66
2022/07/30 06:17:23;;;;;;;1.90;1.40;;;24.10;47.00;23.30;101375.00;;;;5019278;28;20042;-66
2022/07/30 06:20:11;;;;;;;1.83;1.67;;;24.10;47.10;23.30;101372.00;;;;5019479;28;20037;-66
2022/07/30 06:22:57;;;;;;;;;;;24.20;47.20;23.30;101367.00;;;;5010660;28;20048;-66
2022/07/30 06:25:43;;;;;;;2.45;1.75;;;24.20;47.00;23.30;101368.00;;;;5022566;28;19924;-66
2022/07/30 06:28:30;;;;;;;3.47;1.75;;;24.20;47.10;23.30;101361.00;;;;5027945;28;20159;-66
2022/07/30 06:31:16;;;;;;;2.47;1.45;;;24.20;47.10;23.30;101370.00;;;;5024168;28;20041;-66
2022/07/30 06:34:02;;;;;;;1.83;1.65;;;24.20;47.00;23.30;101366.00;;;;5020331;28;20049;-66
2022/07/30 06:36:48;;;;;;;2.00;1.80;;;24.20;47.10;23.30;101369.00;;;;5024304;28;20038;-66
2022/07/30 06:39:34;;;;;;;3.22;1.88;;;24.20;47.10;23.30;101373.00;;;;5020699;28;20428;-66
2022/07/30 06:42:20;;;;;;;2.35;1.60;;;24.20;47.20;23.30;101378.00;;;;5021853;28;20041;-66
2022/07/30 06:45:07;;;;;;;3.30;1.90;;;24.20;47.20;23.40;101366.00;;;;5025862;28;20116;-67
2022/07/30 06:47:57;;;;;;;2.70;1.93;;;24.20;47.30;23.30;101378.00;;;;5017207;28;20322;-66
2022/07/30 06:50:43;;;;;;;2.38;1.92;;;24.20;47.20;23.40;101374.00;;;;5031506;28;20040;-66
2022/07/30 06:53:29;;;;;;;3.85;1.92;;;24.20;47.20;23.40;101374.00;;;;5024204;28;20098;-66
2022/07/30 06:56:15;;;;;;;3.80;1.67;;;24.20;47.20;23.40;101381.00;;;;5020470;28;20503;-66
2022/07/30 06:59:01;;;;;;;4.03;1.70;;;24.20;47.20;23.40;101379.00;;;;5022606;28;20037;-66
2022/07/30 07:01:48;;;;;;;2.05;1.65;;;24.30;47.30;23.40;101383.00;;;;5026085;28;20412;-66
2022/07/30 07:04:34;;;;;;;2.38;2.10;;;24.30;47.30;23.40;101386.00;;;;5024068;28;20464;-66
2022/07/30 07:07:20;;;;;;;2.85;1.40;;;24.20;47.30;23.40;101383.00;;;;5023543;28;20118;-66
2022/07/30 07:10:07;;;;;;;3.17;1.80;;;24.20;47.30;23.40;101389.00;;;;5019686;28;20400;-66
2022/07/30 07:12:54;;;;;;;2.67;1.95;;;24.30;47.30;23.40;101380.00;;;;5015728;28;20030;-66
2022/07/30 07:15:40;;;;;;;2.10;1.42;;;24.30;47.40;23.40;101390.00;;;;5026240;28;20767;-66
2022/07/30 07:18:26;;;;;;;2.38;1.63;;;24.30;47.40;23.40;101386.00;;;;5024788;28;20111;-66
2022/07/30 07:21:12;;;;;;;2.58;1.80;;;24.40;47.50;23.40;101393.00;;;;5025718;28;20684;-66
2022/07/30 07:23:59;;;;;;;3.10;2.20;;;24.40;47.40;23.40;101391.00;;;;5022288;28;20388;-66
2022/07/30 07:26:45;;;;;;;2.05;1.80;;;24.40;47.50;23.40;101386.00;;;;5023267;28;20041;-66
2022/07/30 07:29:31;;;;;;;2.30;1.65;;;24.40;47.50;23.40;101391.00;;;;5027630;28;20041;-67
2022/07/30 07:32:17;;;;;;;6.15;3.05;;;24.30;47.30;23.40;101386.00;;;;5019306;28;20049;-66
2022/07/30 07:35:04;;;;;;;3.75;2.30;;;24.40;47.50;23.50;101387.00;;;;5030528;28;20045;-66
2022/07/30 07:37:50;;;;;;;2.88;1.80;;;24.40;47.60;23.40;101394.00;;;;5007298;28;20200;-66
2022/07/30 07:40:36;;;;;;;2.38;2.03;;;24.40;47.60;23.40;101395.00;;;;5019788;28;20502;-66
2022/07/30 07:43:24;;;;;;;3.10;2.15;;;24.40;47.50;23.50;101386.00;;;;5023074;28;20041;-66
2022/07/30 07:46:11;;;;;;;4.50;2.10;;;24.30;47.50;23.50;101393.00;;;;5021196;28;20303;-66
2022/07/30 07:48:57;;;;;;;3.38;2.50;;;24.40;47.50;23.50;101390.00;;;;5025199;28;20049;-66
2022/07/30 07:51:43;;;;;;;2.35;1.98;;;24.40;47.60;23.50;101394.00;;;;5024414;28;20053;-66
2022/07/30 07:54:29;;;;;;;2.97;2.17;;;24.40;47.50;23.50;101394.00;;;;5026867;28;20048;-66
2022/07/30 07:57:15;;;;;;;4.97;2.63;;;24.40;47.60;23.50;101395.00;;;;5027153;28;20345;-66
2022/07/30 08:00:01;;;;;;;2.97;1.80;;;24.40;47.80;23.50;101391.00;;;;5020461;28;20458;-66
2022/07/30 08:02:47;;;;;;;3.70;2.42;;;24.40;47.70;23.50;101393.00;;;;5023864;28;20029;-66
2022/07/30 08:05:33;;;;;;;2.38;2.17;;;24.40;47.80;23.50;101391.00;;;;5021928;28;20033;-66
2022/07/30 08:08:19;;;;;;;3.55;2.05;;;24.40;47.80;23.50;101389.00;;;;5026359;28;20148;-66
2022/07/30 08:11:06;;;;;;;3.13;2.33;;;24.40;47.80;23.50;101389.00;;;;5020058;28;20045;-66
2022/07/30 08:13:52;;;;;;;4.68;2.63;;;24.40;47.80;23.50;101389.00;;;;5026226;28;20450;-66
2022/07/30 08:16:38;;;;;;;3.15;1.83;;;24.50;47.90;23.50;101390.00;;;;5024492;28;20420;-66
2022/07/30 08:19:24;;;;;;;2.15;1.92;;;24.50;47.90;23.50;101389.00;;;;5032188;28;20135;-66
2022/07/30 08:22:10;;;;;;;3.45;2.33;;;24.50;47.80;23.50;101397.00;;;;5029251;28;20053;-66
2022/07/30 08:24:56;;;;;;;2.80;2.10;;;24.50;47.90;23.50;101397.00;;;;5029558;28;20045;-66
2022/07/30 08:27:45;;;;;;;2.20;1.98;;;24.50;47.80;23.50;101389.00;;;;5027299;28;20050;-66
2022/07/30 08:30:31;;;;;;;2.50;2.10;;;24.50;47.90;23.50;101392.00;;;;5031259;28;20044;-66
2022/07/30 08:33:17;;;;;;;2.40;1.98;;;24.50;47.80;23.50;101385.00;;;;5025014;28;20052;-66
2022/07/30 08:36:03;;;;;;;4.07;2.03;;;24.50;47.90;23.50;101395.00;;;;5030171;28;20124;-66
2022/07/30 08:38:49;;;;;;;4.28;2.42;;;24.50;47.90;23.50;101395.00;;;;5025472;28;20037;-66
2022/07/30 08:41:36;;;;;;;3.38;2.30;;;24.50;48.10;23.50;101393.00;;;;5023383;28;20075;-66
2022/07/30 08:44:22;;;;;;;2.30;2.10;;;24.50;47.90;23.50;101395.00;;;;5025518;28;21151;-66
2022/07/30 08:47:08;;;;;;;3.50;2.08;;;24.60;48.10;23.50;101400.00;;;;5025308;28;20052;-66
2022/07/30 08:50:00;;;;;;;3.08;2.40;;;24.50;48.00;23.50;101397.00;;;;5028313;28;20497;-66
2022/07/30 08:52:47;;;;;;;3.35;2.00;;;24.50;48.00;23.50;101392.00;;;;5030749;28;20396;-66
2022/07/30 08:55:33;;;;;;;;;;;24.60;48.10;23.50;101394.00;;;;5024927;28;20052;-66
2022/07/30 08:58:28;;;;;;;3.25;2.17;;;24.60;47.90;23.50;101406.00;;;;5028359;28;19923;-66
2022/07/30 09:01:14;;;;;;;3.08;2.08;;;24.50;48.00;23.50;101398.00;;;;5010268;28;20033;-66
2022/07/30 09:04:00;;;;;;;3.38;2.03;;;24.60;48.00;23.50;101403.00;;;;5024630;28;20046;-66
2022/07/30 09:06:46;;;;;;;4.68;2.33;;;24.60;48.30;23.60;101407.00;;;;5023444;28;20498;-66
2022/07/30 09:09:32;;;;;;;3.03;1.70;;;24.60;48.30;23.60;101408.00;;;;5028911;28;20049;-66
2022/07/30 09:12:41;;;;;;;2.63;1.92;;;24.60;48.30;23.60;101408.00;;;;5024645;28;20048;-66
2022/07/30 09:15:27;;;;;;;2.03;1.77;;;24.60;48.40;23.50;101409.00;;;;5027448;28;20046;-66
2022/07/30 09:18:13;;;;;;;2.67;1.83;;;24.60;48.30;23.60;101408.00;;;;5020868;28;20399;-66
2022/07/30 09:21:14;;;;;;;2.65;2.28;;;24.60;48.50;23.60;101410.00;;;;5021458;28;20045;-66
2022/07/30 09:24:11;;;;;;;4.43;2.05;;;24.60;48.70;23.60;101407.00;;;;5022422;28;20484;-66
2022/07/30 09:27:03;;;;;;;3.22;2.40;;;24.60;48.60;23.60;101403.00;;;;5008408;28;20041;-66
2022/07/30 09:29:57;;;;;;;3.03;2.20;;;24.60;49.00;23.60;101404.00;;;;5027250;28;20319;-66
2022/07/30 09:32:51;;;;;;;3.58;2.40;;;24.60;48.70;23.60;101409.00;;;;5022228;28;20079;-66
2022/07/30 09:35:38;;;;;;;3.42;2.70;;;24.60;48.90;23.60;101412.00;;;;5025610;28;20139;-66
2022/07/30 09:38:25;;;;;;;2.28;1.80;;;24.60;48.70;23.60;101410.00;;;;5022380;28;20046;-66
2022/07/30 09:41:11;;;;;;;3.53;2.77;;;24.60;48.70;23.60;101405.00;;;;5017562;28;20286;-66
2022/07/30 09:43:57;;;;;;;2.47;2.28;;;24.60;48.90;23.60;101410.00;;;;5011875;28;20033;-66
2022/07/30 09:46:46;;;;;;;2.08;1.88;;;24.70;48.80;23.60;101399.00;;;;5034282;28;20049;-66
2022/07/30 09:49:33;;;;;;;2.78;1.80;;;24.60;48.80;23.60;101403.00;;;;5022067;28;20049;-66
2022/07/30 09:52:28;;;;;;;2.22;1.90;;;24.60;48.50;23.60;101405.00;;;;5024772;28;20034;-66
2022/07/30 09:55:14;;;;;;;2.63;2.08;;;24.60;48.70;23.60;101410.00;;;;5020002;28;20048;-66
2022/07/30 09:58:03;;;;;;;2.63;2.42;;;24.60;48.70;23.60;101404.00;;;;5021870;28;20049;-66
2022/07/30 10:00:49;;;;;;;3.20;2.45;;;24.60;48.80;23.60;101407.00;;;;5017600;28;20399;-66
2022/07/30 10:03:35;;;;;;;3.78;2.63;;;24.70;49.00;23.60;101405.00;;;;5027895;28;20049;-66
2022/07/30 10:06:36;;;;;;;3.72;2.30;;;24.70;49.00;23.60;101411.00;;;;5022707;28;20597;-66
2022/07/30 10:09:31;;;;;;;3.80;2.08;;;24.60;49.20;23.60;101410.00;;;;5023171;28;20045;-66
2022/07/30 10:12:17;;;;;;;3.08;2.35;;;24.70;49.00;23.60;101404.00;;;;5019593;28;20139;-66
2022/07/30 10:15:03;;;;;;;4.38;2.60;;;24.70;49.20;23.70;101401.00;;;;5023517;28;20047;-66
2022/07/30 10:17:49;;;;;;;3.00;2.22;;;24.70;49.30;23.70;101394.00;;;;5021514;28;20348;-66
2022/07/30 10:20:37;;;;;;;3.97;2.38;;;24.70;49.10;23.70;101406.00;;;;5038740;28;20039;-66
2022/07/30 10:23:26;;;;;;;2.67;1.98;;;24.70;49.30;23.70;101409.00;;;;5035090;28;20049;-66
2022/07/30 10:26:12;;;;;;;2.60;2.13;;;24.70;49.20;23.70;101403.00;;;;5038211;28;20045;-66
2022/07/30 10:28:58;;;;;;;2.53;1.83;;;24.70;49.20;23.70;101403.00;;;;5027121;28;20041;-66
2022/07/30 10:31:45;;;;;;;3.22;2.20;;;24.70;48.90;23.70;101396.00;;;;5038709;28;20060;-66
2022/07/30 10:34:31;;;;;;;3.75;2.15;;;24.80;49.00;23.70;101402.00;;;;5033273;28;20071;-66
2022/07/30 10:37:18;;;;;;;4.22;1.95;;;24.80;49.00;23.70;101409.00;;;;5020030;28;20057;-66
2022/07/30 10:40:31;;;;;;;2.45;1.77;;;24.80;49.10;23.70;101406.00;;;;5036725;28;20081;-66
2022/07/30 10:43:54;;;;;;;3.83;1.83;;;24.80;49.10;23.70;101401.00;;;;5029111;28;20041;-66
2022/07/30 10:46:49;;;;;;;2.53;2.00;;;24.80;48.80;23.70;101401.00;;;;5022333;28;20327;-66
2022/07/30 10:49:35;;;;;;;4.15;2.30;;;24.80;48.70;23.70;101405.00;;;;5028376;28;20154;-66
2022/07/30 10:52:52;;;;;;;3.75;2.25;;;24.80;48.80;23.70;101394.00;;;;5022860;28;20045;-66
2022/07/30 10:55:38;;;;;;;2.50;2.00;;;24.80;48.60;23.70;101407.00;;;;5019927;28;20045;-66
2022/07/30 10:58:24;;;;;;;1.55;1.33;;;24.80;48.60;23.70;101402.00;;;;5021597;28;20053;-66
2022/07/30 11:01:10;;;;;;;4.82;2.33;;;24.80;48.60;23.70;101404.00;;;;5016564;28;20662;-66
2022/07/30 11:04:27;;;;;;;3.97;1.85;;;24.80;48.60;23.70;101399.00;;;;5023399;28;20034;-66
2022/07/30 11:07:23;;;;;;;2.50;1.83;;;24.80;48.40;23.70;101398.00;;;;5023419;28;20050;-66
2022/07/30 11:10:35;;;;;;;4.43;2.00;;;24.80;48.40;23.70;101397.00;;;;5016332;28;20128;-66
2022/07/30 11:13:57;;;;;;;4.68;2.33;;;24.80;48.40;23.70;101401.00;;;;5016838;28;20046;-66
2022/07/30 11:16:43;;;;;;;2.53;2.03;;;24.80;48.30;23.70;101402.00;;;;5018104;28;20037;-66
2022/07/30 11:19:29;;;;;;;2.55;1.80;;;24.90;48.40;23.70;101400.00;;;;5021701;28;20090;-66
2022/07/30 11:22:30;;;;;;;2.83;2.03;;;24.80;48.40;23.70;101402.00;;;;5022589;28;20125;-65
2022/07/30 11:25:28;;;;;;;2.22;1.85;;;24.80;48.40;23.70;101416.00;;;;5025770;28;20049;-66
2022/07/30 11:28:46;;;;;;;5.35;1.90;;;24.80;48.30;23.70;101407.00;;;;5025748;28;20042;-66
2022/07/30 11:31:34;;;;;;;2.53;1.85;;;24.90;48.30;23.70;101396.00;;;;5020831;28;20072;-66
2022/07/30 11:34:20;;;;;;;2.83;1.83;;;24.90;48.20;23.70;101401.00;;;;5032878;28;20058;-66
2022/07/30 11:37:16;;;;;;;3.60;2.25;;;24.90;48.20;23.80;101399.00;;;;5026149;28;20037;-66
2022/07/30 11:40:06;;;;;;;4.03;2.17;;;24.90;48.20;23.70;101396.00;;;;5022760;28;20510;-66
2022/07/30 11:43:28;;;;;;;3.13;2.10;;;24.90;48.10;23.70;101393.00;;;;5021045;28;20053;-66
2022/07/30 11:46:18;;;;;;;2.28;2.05;;;24.90;48.20;23.70;101395.00;;;;5029377;28;20506;-66
2022/07/30 11:49:07;;;;;;;2.58;1.95;;;24.90;48.90;23.80;101396.00;;;;5024397;28;20091;-66
2022/07/30 11:51:53;;;;;;;2.95;1.98;;;24.90;48.20;23.80;101395.00;;;;5017225;28;20069;-66
2022/07/30 11:54:52;;;;;;;2.00;1.80;;;24.90;48.20;23.80;101391.00;;;;5027800;28;20487;-66
2022/07/30 11:57:40;;;;;;;3.25;1.90;;;24.90;48.20;23.80;101397.00;;;;5024146;28;20041;-66
2022/07/30 12:00:46;;;;;;;2.13;1.85;;;24.90;48.20;23.80;101386.00;;;;5027598;28;20463;-66
2022/07/30 12:03:32;;;;;;;2.00;1.88;;;24.90;48.10;23.80;101399.00;;;;5042812;28;20375;-66
2022/07/30 12:06:19;;;;;;;4.30;1.90;;;25.00;48.10;23.80;101389.00;;;;5024454;28;20040;-66
2022/07/30 12:09:05;;;;;;;3.37;2.10;;;25.00;48.20;23.80;101395.00;;;;5028367;28;20495;-66
2022/07/30 12:11:51;;;;;;;3.50;2.30;;;24.90;48.00;23.80;101382.00;;;;5027013;28;20041;-66
2022/07/30 12:14:40;;;;;;;3.03;1.70;;;24.90;48.00;23.80;101391.00;;;;5045181;28;20052;-66
2022/07/30 12:17:43;;;;;;;3.80;1.90;;;25.00;48.10;23.80;101391.00;;;;5024397;28;20468;-66
2022/07/30 12:20:29;;;;;;;2.45;1.98;;;24.90;48.00;23.80;101387.00;;;;5028031;28;20037;-66
2022/07/30 12:23:15;;;;;;;2.50;1.75;;;24.90;47.80;23.80;101396.00;;;;5016288;28;20052;-66